sensor_id;sensor_type;location;lat;lon;timestamp;P1;durP1;ratioP1;P2;durP2;ratioP2
29908;SDS011;36247;51.952;6.146;2023-03-31T00:00:55;15.48;;;4.43;;
29908;SDS011;36247;51.952;6.146;2023-03-31T00:03:22;7.22;;;3.30;;
29908;SDS011;36247;51.952;6.146;2023-03-31T00:05:49;14.45;;;4.03;;
29908;SDS011;36247;51.952;6.146;2023-03-31T00:08:23;12.50;;;3.75;;
29908;SDS011;36247;51.952;6.146;2023-03-31T00:10:49;10.32;;;3.60;;
29908;SDS011;36247;51.952;6.146;2023-03-31T00:13:16;13.43;;;3.67;;
29908;SDS011;36247;51.952;6.146;2023-03-31T00:15:44;8.38;;;3.47;;
29908;SDS011;36247;51.952;6.146;2023-03-31T00:18:10;12.10;;;3.60;;
29908;SDS011;36247;51.952;6.146;2023-03-31T00:20:36;9.90;;;3.70;;
29908;SDS011;36247;51.952;6.146;2023-03-31T00:23:02;13.77;;;3.60;;
29908;SDS011;36247;51.952;6.146;2023-03-31T00:25:30;13.38;;;3.28;;
29908;SDS011;36247;51.952;6.146;2023-03-31T00:27:56;13.35;;;3.95;;
29908;SDS011;36247;51.952;6.146;2023-03-31T00:30:22;12.65;;;4.68;;
29908;SDS011;36247;51.952;6.146;2023-03-31T00:32:48;12.65;;;3.40;;
29908;SDS011;36247;51.952;6.146;2023-03-31T00:35:17;14.13;;;4.07;;
29908;SDS011;36247;51.952;6.146;2023-03-31T00:40:15;14.77;;;4.22;;
29908;SDS011;36247;51.952;6.146;2023-03-31T00:42:41;9.05;;;3.97;;
29908;SDS011;36247;51.952;6.146;2023-03-31T00:47:41;10.07;;;3.95;;
29908;SDS011;36247;51.952;6.146;2023-03-31T00:50:31;10.95;;;4.20;;
29908;SDS011;36247;51.952;6.146;2023-03-31T00:53:01;8.80;;;3.60;;
29908;SDS011;36247;51.952;6.146;2023-03-31T00:55:34;14.88;;;3.65;;
29908;SDS011;36247;51.952;6.146;2023-03-31T00:58:06;18.40;;;3.92;;
29908;SDS011;36247;51.952;6.146;2023-03-31T01:00:39;8.07;;;3.30;;
29908;SDS011;36247;51.952;6.146;2023-03-31T01:03:06;9.80;;;4.10;;
29908;SDS011;36247;51.952;6.146;2023-03-31T01:05:44;11.98;;;3.72;;
29908;SDS011;36247;51.952;6.146;2023-03-31T01:08:15;12.88;;;3.65;;
29908;SDS011;36247;51.952;6.146;2023-03-31T01:10:44;11.60;;;3.45;;
29908;SDS011;36247;51.952;6.146;2023-03-31T01:13:13;7.20;;;3.17;;
29908;SDS011;36247;51.952;6.146;2023-03-31T01:15:41;13.07;;;3.47;;
29908;SDS011;36247;51.952;6.146;2023-03-31T01:18:08;15.68;;;3.63;;
29908;SDS011;36247;51.952;6.146;2023-03-31T01:21:05;12.90;;;3.85;;
29908;SDS011;36247;51.952;6.146;2023-03-31T01:35:27;10.57;;;4.25;;
29908;SDS011;36247;51.952;6.146;2023-03-31T01:41:14;15.27;;;4.20;;
29908;SDS011;36247;51.952;6.146;2023-03-31T01:46:55;11.90;;;4.00;;
29908;SDS011;36247;51.952;6.146;2023-03-31T01:52:01;9.55;;;3.95;;
29908;SDS011;36247;51.952;6.146;2023-03-31T01:54:39;13.25;;;4.25;;
29908;SDS011;36247;51.952;6.146;2023-03-31T01:57:16;11.77;;;4.43;;
29908;SDS011;36247;51.952;6.146;2023-03-31T02:02:26;13.13;;;3.50;;
29908;SDS011;36247;51.952;6.146;2023-03-31T02:05:00;14.85;;;3.65;;
29908;SDS011;36247;51.952;6.146;2023-03-31T02:10:20;12.25;;;3.58;;
29908;SDS011;36247;51.952;6.146;2023-03-31T02:12:50;10.95;;;3.63;;
29908;SDS011;36247;51.952;6.146;2023-03-31T02:15:26;14.25;;;4.35;;
29908;SDS011;36247;51.952;6.146;2023-03-31T02:17:56;11.60;;;4.32;;
29908;SDS011;36247;51.952;6.146;2023-03-31T02:20:24;11.02;;;3.70;;
29908;SDS011;36247;51.952;6.146;2023-03-31T02:22:53;12.98;;;3.65;;
29908;SDS011;36247;51.952;6.146;2023-03-31T02:25:23;9.52;;;3.83;;
29908;SDS011;36247;51.952;6.146;2023-03-31T02:27:56;14.63;;;4.10;;
29908;SDS011;36247;51.952;6.146;2023-03-31T02:30:28;18.48;;;4.07;;
29908;SDS011;36247;51.952;6.146;2023-03-31T02:33:03;11.40;;;3.85;;
29908;SDS011;36247;51.952;6.146;2023-03-31T02:35:29;11.43;;;4.20;;
29908;SDS011;36247;51.952;6.146;2023-03-31T02:37:57;12.38;;;4.28;;
29908;SDS011;36247;51.952;6.146;2023-03-31T02:40:24;16.25;;;3.97;;
29908;SDS011;36247;51.952;6.146;2023-03-31T02:42:52;14.65;;;4.07;;
29908;SDS011;36247;51.952;6.146;2023-03-31T02:48:04;15.65;;;4.82;;
29908;SDS011;36247;51.952;6.146;2023-03-31T02:50:48;18.77;;;4.95;;
29908;SDS011;36247;51.952;6.146;2023-03-31T03:03:40;13.63;;;4.68;;
29908;SDS011;36247;51.952;6.146;2023-03-31T03:09:26;14.68;;;3.88;;
29908;SDS011;36247;51.952;6.146;2023-03-31T03:12:24;10.57;;;3.65;;
29908;SDS011;36247;51.952;6.146;2023-03-31T03:17:56;11.07;;;3.75;;
29908;SDS011;36247;51.952;6.146;2023-03-31T03:20:23;16.23;;;3.90;;
29908;SDS011;36247;51.952;6.146;2023-03-31T03:22:49;21.92;;;5.43;;
29908;SDS011;36247;51.952;6.146;2023-03-31T03:25:15;14.40;;;3.97;;
29908;SDS011;36247;51.952;6.146;2023-03-31T03:27:44;23.40;;;4.80;;
29908;SDS011;36247;51.952;6.146;2023-03-31T03:30:11;8.95;;;2.95;;
29908;SDS011;36247;51.952;6.146;2023-03-31T03:32:38;19.55;;;4.85;;
29908;SDS011;36247;51.952;6.146;2023-03-31T03:35:06;16.33;;;3.80;;
29908;SDS011;36247;51.952;6.146;2023-03-31T03:37:32;13.27;;;4.20;;
29908;SDS011;36247;51.952;6.146;2023-03-31T03:39:57;12.15;;;3.85;;
29908;SDS011;36247;51.952;6.146;2023-03-31T03:42:24;15.68;;;4.28;;
29908;SDS011;36247;51.952;6.146;2023-03-31T03:44:49;14.18;;;4.32;;
29908;SDS011;36247;51.952;6.146;2023-03-31T03:47:15;13.55;;;3.95;;
29908;SDS011;36247;51.952;6.146;2023-03-31T03:49:40;18.10;;;4.85;;
29908;SDS011;36247;51.952;6.146;2023-03-31T03:52:06;18.95;;;5.15;;
29908;SDS011;36247;51.952;6.146;2023-03-31T03:54:32;15.60;;;4.13;;
29908;SDS011;36247;51.952;6.146;2023-03-31T03:56:58;13.07;;;3.97;;
29908;SDS011;36247;51.952;6.146;2023-03-31T03:59:23;14.13;;;4.28;;
29908;SDS011;36247;51.952;6.146;2023-03-31T04:01:49;22.73;;;5.00;;
29908;SDS011;36247;51.952;6.146;2023-03-31T04:04:18;13.50;;;4.20;;
29908;SDS011;36247;51.952;6.146;2023-03-31T04:06:43;13.98;;;4.82;;
29908;SDS011;36247;51.952;6.146;2023-03-31T04:09:09;22.50;;;4.22;;
29908;SDS011;36247;51.952;6.146;2023-03-31T04:11:36;17.70;;;4.80;;
29908;SDS011;36247;51.952;6.146;2023-03-31T04:14:03;13.07;;;3.95;;
29908;SDS011;36247;51.952;6.146;2023-03-31T04:16:29;15.77;;;4.40;;
29908;SDS011;36247;51.952;6.146;2023-03-31T04:18:56;11.10;;;4.13;;
29908;SDS011;36247;51.952;6.146;2023-03-31T04:21:23;16.45;;;4.68;;
29908;SDS011;36247;51.952;6.146;2023-03-31T04:23:51;15.07;;;4.72;;
29908;SDS011;36247;51.952;6.146;2023-03-31T04:26:45;19.52;;;4.28;;
29908;SDS011;36247;51.952;6.146;2023-03-31T04:29:11;12.13;;;3.80;;
29908;SDS011;36247;51.952;6.146;2023-03-31T04:31:38;17.73;;;4.15;;
29908;SDS011;36247;51.952;6.146;2023-03-31T04:34:10;18.50;;;4.00;;
29908;SDS011;36247;51.952;6.146;2023-03-31T04:36:41;18.05;;;4.25;;
29908;SDS011;36247;51.952;6.146;2023-03-31T04:39:15;20.10;;;4.07;;
29908;SDS011;36247;51.952;6.146;2023-03-31T04:41:42;12.82;;;3.30;;
29908;SDS011;36247;51.952;6.146;2023-03-31T04:44:08;14.48;;;5.07;;
29908;SDS011;36247;51.952;6.146;2023-03-31T04:46:33;18.17;;;4.30;;
29908;SDS011;36247;51.952;6.146;2023-03-31T04:49:00;11.50;;;4.00;;
29908;SDS011;36247;51.952;6.146;2023-03-31T04:51:27;15.07;;;3.67;;
29908;SDS011;36247;51.952;6.146;2023-03-31T04:53:54;16.25;;;4.13;;
29908;SDS011;36247;51.952;6.146;2023-03-31T04:56:20;18.33;;;4.90;;
29908;SDS011;36247;51.952;6.146;2023-03-31T04:58:47;18.55;;;4.40;;
29908;SDS011;36247;51.952;6.146;2023-03-31T05:01:13;18.67;;;4.55;;
29908;SDS011;36247;51.952;6.146;2023-03-31T05:03:44;17.70;;;4.13;;
29908;SDS011;36247;51.952;6.146;2023-03-31T05:06:12;23.92;;;4.90;;
29908;SDS011;36247;51.952;6.146;2023-03-31T05:08:39;13.65;;;4.95;;
29908;SDS011;36247;51.952;6.146;2023-03-31T05:11:07;23.08;;;4.95;;
29908;SDS011;36247;51.952;6.146;2023-03-31T05:13:32;19.50;;;4.20;;
29908;SDS011;36247;51.952;6.146;2023-03-31T05:15:58;15.93;;;4.85;;
29908;SDS011;36247;51.952;6.146;2023-03-31T05:18:30;19.88;;;5.00;;
29908;SDS011;36247;51.952;6.146;2023-03-31T05:20:56;21.10;;;6.38;;
29908;SDS011;36247;51.952;6.146;2023-03-31T05:23:21;17.67;;;4.68;;
29908;SDS011;36247;51.952;6.146;2023-03-31T05:25:47;13.05;;;5.82;;
29908;SDS011;36247;51.952;6.146;2023-03-31T05:28:13;16.45;;;5.22;;
29908;SDS011;36247;51.952;6.146;2023-03-31T05:30:38;17.52;;;4.90;;
29908;SDS011;36247;51.952;6.146;2023-03-31T05:33:04;23.42;;;5.25;;
29908;SDS011;36247;51.952;6.146;2023-03-31T05:35:29;17.58;;;5.80;;
29908;SDS011;36247;51.952;6.146;2023-03-31T05:37:55;26.27;;;6.78;;
29908;SDS011;36247;51.952;6.146;2023-03-31T05:40:21;16.35;;;5.63;;
29908;SDS011;36247;51.952;6.146;2023-03-31T05:42:47;16.50;;;4.85;;
29908;SDS011;36247;51.952;6.146;2023-03-31T05:45:13;15.93;;;5.60;;
29908;SDS011;36247;51.952;6.146;2023-03-31T05:47:38;19.98;;;4.30;;
29908;SDS011;36247;51.952;6.146;2023-03-31T05:50:06;21.08;;;4.18;;
29908;SDS011;36247;51.952;6.146;2023-03-31T05:52:33;15.18;;;4.25;;
29908;SDS011;36247;51.952;6.146;2023-03-31T05:54:59;19.63;;;5.43;;
29908;SDS011;36247;51.952;6.146;2023-03-31T05:57:25;14.27;;;4.75;;
29908;SDS011;36247;51.952;6.146;2023-03-31T05:59:54;16.17;;;4.63;;
29908;SDS011;36247;51.952;6.146;2023-03-31T06:02:19;16.30;;;5.00;;
29908;SDS011;36247;51.952;6.146;2023-03-31T06:04:45;13.88;;;4.45;;
29908;SDS011;36247;51.952;6.146;2023-03-31T06:07:11;13.75;;;4.30;;
29908;SDS011;36247;51.952;6.146;2023-03-31T06:09:39;15.27;;;4.35;;
29908;SDS011;36247;51.952;6.146;2023-03-31T06:12:04;13.52;;;4.88;;
29908;SDS011;36247;51.952;6.146;2023-03-31T06:14:30;13.10;;;3.60;;
29908;SDS011;36247;51.952;6.146;2023-03-31T06:16:56;13.57;;;4.28;;
29908;SDS011;36247;51.952;6.146;2023-03-31T06:19:21;14.43;;;3.95;;
29908;SDS011;36247;51.952;6.146;2023-03-31T06:21:50;14.30;;;4.10;;
29908;SDS011;36247;51.952;6.146;2023-03-31T06:24:17;14.88;;;3.97;;
29908;SDS011;36247;51.952;6.146;2023-03-31T06:26:44;12.73;;;4.30;;
29908;SDS011;36247;51.952;6.146;2023-03-31T06:29:10;10.10;;;4.00;;
29908;SDS011;36247;51.952;6.146;2023-03-31T06:31:36;9.48;;;3.83;;
29908;SDS011;36247;51.952;6.146;2023-03-31T06:34:03;12.80;;;3.88;;
29908;SDS011;36247;51.952;6.146;2023-03-31T06:36:29;15.02;;;4.53;;
29908;SDS011;36247;51.952;6.146;2023-03-31T06:38:57;9.45;;;3.55;;
29908;SDS011;36247;51.952;6.146;2023-03-31T06:44:09;8.45;;;2.72;;
29908;SDS011;36247;51.952;6.146;2023-03-31T06:46:35;7.35;;;3.13;;
29908;SDS011;36247;51.952;6.146;2023-03-31T06:49:02;8.82;;;2.83;;
29908;SDS011;36247;51.952;6.146;2023-03-31T06:51:28;8.32;;;3.22;;
29908;SDS011;36247;51.952;6.146;2023-03-31T06:53:53;6.00;;;2.85;;
29908;SDS011;36247;51.952;6.146;2023-03-31T06:56:19;4.13;;;2.65;;
29908;SDS011;36247;51.952;6.146;2023-03-31T06:58:46;5.00;;;2.67;;
29908;SDS011;36247;51.952;6.146;2023-03-31T07:01:12;7.10;;;2.25;;
29908;SDS011;36247;51.952;6.146;2023-03-31T07:03:38;6.65;;;2.58;;
29908;SDS011;36247;51.952;6.146;2023-03-31T07:06:04;11.55;;;2.95;;
29908;SDS011;36247;51.952;6.146;2023-03-31T07:08:31;5.53;;;2.50;;
29908;SDS011;36247;51.952;6.146;2023-03-31T07:10:58;10.63;;;2.95;;
29908;SDS011;36247;51.952;6.146;2023-03-31T07:13:31;5.65;;;2.90;;
29908;SDS011;36247;51.952;6.146;2023-03-31T07:15:57;8.45;;;2.80;;
29908;SDS011;36247;51.952;6.146;2023-03-31T07:18:23;6.72;;;3.05;;
29908;SDS011;36247;51.952;6.146;2023-03-31T07:20:57;9.70;;;3.13;;
29908;SDS011;36247;51.952;6.146;2023-03-31T07:23:28;8.77;;;3.45;;
29908;SDS011;36247;51.952;6.146;2023-03-31T07:25:53;11.70;;;2.97;;
29908;SDS011;36247;51.952;6.146;2023-03-31T07:28:19;8.63;;;2.97;;
29908;SDS011;36247;51.952;6.146;2023-03-31T07:30:45;11.45;;;3.53;;
29908;SDS011;36247;51.952;6.146;2023-03-31T07:33:11;10.30;;;3.00;;
29908;SDS011;36247;51.952;6.146;2023-03-31T07:35:40;9.82;;;3.22;;
29908;SDS011;36247;51.952;6.146;2023-03-31T07:38:12;10.38;;;3.22;;
29908;SDS011;36247;51.952;6.146;2023-03-31T07:40:38;14.93;;;3.33;;
29908;SDS011;36247;51.952;6.146;2023-03-31T07:43:08;8.23;;;3.00;;
29908;SDS011;36247;51.952;6.146;2023-03-31T07:45:34;11.43;;;2.85;;
29908;SDS011;36247;51.952;6.146;2023-03-31T07:48:00;13.45;;;3.75;;
29908;SDS011;36247;51.952;6.146;2023-03-31T07:50:26;11.90;;;3.10;;
29908;SDS011;36247;51.952;6.146;2023-03-31T07:52:54;9.60;;;3.92;;
29908;SDS011;36247;51.952;6.146;2023-03-31T07:55:21;6.43;;;2.90;;
29908;SDS011;36247;51.952;6.146;2023-03-31T07:57:49;9.35;;;3.35;;
29908;SDS011;36247;51.952;6.146;2023-03-31T08:00:18;9.10;;;2.90;;
29908;SDS011;36247;51.952;6.146;2023-03-31T08:02:45;6.72;;;2.70;;
29908;SDS011;36247;51.952;6.146;2023-03-31T08:05:18;9.45;;;2.70;;
29908;SDS011;36247;51.952;6.146;2023-03-31T08:07:46;7.53;;;2.42;;
29908;SDS011;36247;51.952;6.146;2023-03-31T08:10:35;5.85;;;2.15;;
29908;SDS011;36247;51.952;6.146;2023-03-31T08:13:03;7.55;;;2.17;;
29908;SDS011;36247;51.952;6.146;2023-03-31T08:15:30;5.40;;;2.20;;
29908;SDS011;36247;51.952;6.146;2023-03-31T08:17:56;10.20;;;2.17;;
29908;SDS011;36247;51.952;6.146;2023-03-31T08:20:26;3.88;;;2.00;;
29908;SDS011;36247;51.952;6.146;2023-03-31T08:22:53;3.10;;;1.98;;
29908;SDS011;36247;51.952;6.146;2023-03-31T08:25:19;4.82;;;2.05;;
29908;SDS011;36247;51.952;6.146;2023-03-31T08:27:45;8.00;;;2.40;;
29908;SDS011;36247;51.952;6.146;2023-03-31T08:30:20;2.35;;;1.88;;
29908;SDS011;36247;51.952;6.146;2023-03-31T08:32:49;6.88;;;2.30;;
29908;SDS011;36247;51.952;6.146;2023-03-31T08:35:15;11.93;;;3.03;;
29908;SDS011;36247;51.952;6.146;2023-03-31T08:37:44;8.45;;;3.15;;
29908;SDS011;36247;51.952;6.146;2023-03-31T08:40:21;7.85;;;3.33;;
29908;SDS011;36247;51.952;6.146;2023-03-31T08:42:53;10.23;;;2.92;;
29908;SDS011;36247;51.952;6.146;2023-03-31T08:45:38;10.73;;;3.97;;
29908;SDS011;36247;51.952;6.146;2023-03-31T08:48:15;16.90;;;4.93;;
29908;SDS011;36247;51.952;6.146;2023-03-31T08:51:28;12.55;;;4.07;;
29908;SDS011;36247;51.952;6.146;2023-03-31T08:54:04;8.50;;;3.42;;
29908;SDS011;36247;51.952;6.146;2023-03-31T08:56:36;14.25;;;3.60;;
29908;SDS011;36247;51.952;6.146;2023-03-31T08:59:42;16.88;;;4.05;;
29908;SDS011;36247;51.952;6.146;2023-03-31T09:05:16;16.15;;;3.75;;
29908;SDS011;36247;51.952;6.146;2023-03-31T09:08:07;17.67;;;3.50;;
29908;SDS011;36247;51.952;6.146;2023-03-31T09:17:37;16.55;;;4.32;;
29908;SDS011;36247;51.952;6.146;2023-03-31T09:19:51;10.02;;;4.75;;
29908;SDS011;36247;51.952;6.146;2023-03-31T09:22:36;16.45;;;5.43;;
29908;SDS011;36247;51.952;6.146;2023-03-31T09:25:27;12.52;;;4.15;;
29908;SDS011;36247;51.952;6.146;2023-03-31T09:28:01;17.45;;;5.30;;
29908;SDS011;36247;51.952;6.146;2023-03-31T09:30:35;16.40;;;4.18;;
29908;SDS011;36247;51.952;6.146;2023-03-31T09:33:15;11.45;;;4.28;;
29908;SDS011;36247;51.952;6.146;2023-03-31T09:35:44;13.50;;;4.60;;
29908;SDS011;36247;51.952;6.146;2023-03-31T09:38:13;16.70;;;4.78;;
29908;SDS011;36247;51.952;6.146;2023-03-31T09:40:41;16.80;;;4.32;;
29908;SDS011;36247;51.952;6.146;2023-03-31T09:43:16;15.30;;;4.78;;
29908;SDS011;36247;51.952;6.146;2023-03-31T09:46:24;15.73;;;5.00;;
29908;SDS011;36247;51.952;6.146;2023-03-31T09:49:12;12.73;;;4.15;;
29908;SDS011;36247;51.952;6.146;2023-03-31T09:51:44;19.08;;;4.82;;
29908;SDS011;36247;51.952;6.146;2023-03-31T09:54:21;13.75;;;3.97;;
29908;SDS011;36247;51.952;6.146;2023-03-31T09:57:13;18.98;;;4.70;;
29908;SDS011;36247;51.952;6.146;2023-03-31T09:59:49;16.25;;;4.38;;
29908;SDS011;36247;51.952;6.146;2023-03-31T10:02:37;16.02;;;4.68;;
29908;SDS011;36247;51.952;6.146;2023-03-31T10:05:16;14.93;;;3.97;;
29908;SDS011;36247;51.952;6.146;2023-03-31T10:10:41;22.27;;;3.92;;
29908;SDS011;36247;51.952;6.146;2023-03-31T10:13:13;18.13;;;5.07;;
29908;SDS011;36247;51.952;6.146;2023-03-31T10:15:51;11.32;;;3.80;;
29908;SDS011;36247;51.952;6.146;2023-03-31T10:18:19;19.17;;;4.75;;
29908;SDS011;36247;51.952;6.146;2023-03-31T10:20:50;14.95;;;4.32;;
29908;SDS011;36247;51.952;6.146;2023-03-31T10:23:29;23.25;;;5.03;;
29908;SDS011;36247;51.952;6.146;2023-03-31T10:26:02;18.13;;;4.03;;
29908;SDS011;36247;51.952;6.146;2023-03-31T10:28:30;18.40;;;4.30;;
29908;SDS011;36247;51.952;6.146;2023-03-31T10:31:02;22.92;;;4.60;;
29908;SDS011;36247;51.952;6.146;2023-03-31T10:33:32;19.35;;;3.60;;
29908;SDS011;36247;51.952;6.146;2023-03-31T10:36:08;11.10;;;3.67;;
29908;SDS011;36247;51.952;6.146;2023-03-31T10:39:08;20.15;;;4.60;;
29908;SDS011;36247;51.952;6.146;2023-03-31T10:41:44;18.10;;;4.32;;
29908;SDS011;36247;51.952;6.146;2023-03-31T10:44:29;14.20;;;3.50;;
29908;SDS011;36247;51.952;6.146;2023-03-31T10:47:03;14.43;;;3.45;;
29908;SDS011;36247;51.952;6.146;2023-03-31T10:49:54;16.20;;;4.20;;
29908;SDS011;36247;51.952;6.146;2023-03-31T10:52:31;11.60;;;3.25;;
29908;SDS011;36247;51.952;6.146;2023-03-31T10:55:23;22.10;;;4.82;;
29908;SDS011;36247;51.952;6.146;2023-03-31T10:58:04;12.30;;;3.15;;
29908;SDS011;36247;51.952;6.146;2023-03-31T11:12:22;16.55;;;3.90;;
29908;SDS011;36247;51.952;6.146;2023-03-31T11:14:53;16.80;;;4.32;;
29908;SDS011;36247;51.952;6.146;2023-03-31T11:20:50;15.90;;;3.88;;
29908;SDS011;36247;51.952;6.146;2023-03-31T11:26:26;17.92;;;3.53;;
29908;SDS011;36247;51.952;6.146;2023-03-31T11:34:37;15.75;;;3.70;;
29908;SDS011;36247;51.952;6.146;2023-03-31T11:40:06;15.73;;;3.40;;
29908;SDS011;36247;51.952;6.146;2023-03-31T11:43:02;17.52;;;3.13;;
29908;SDS011;36247;51.952;6.146;2023-03-31T11:45:40;11.65;;;2.92;;
29908;SDS011;36247;51.952;6.146;2023-03-31T11:48:17;12.18;;;3.40;;
29908;SDS011;36247;51.952;6.146;2023-03-31T11:51:20;9.48;;;2.85;;
29908;SDS011;36247;51.952;6.146;2023-03-31T11:53:51;10.27;;;3.03;;
29908;SDS011;36247;51.952;6.146;2023-03-31T11:56:29;10.88;;;3.03;;
29908;SDS011;36247;51.952;6.146;2023-03-31T11:59:00;11.90;;;3.28;;
29908;SDS011;36247;51.952;6.146;2023-03-31T12:01:32;13.88;;;3.88;;
29908;SDS011;36247;51.952;6.146;2023-03-31T12:10:04;12.20;;;3.15;;
29908;SDS011;36247;51.952;6.146;2023-03-31T12:15:43;12.05;;;3.05;;
29908;SDS011;36247;51.952;6.146;2023-03-31T12:18:24;13.27;;;2.88;;
29908;SDS011;36247;51.952;6.146;2023-03-31T12:20:57;10.95;;;3.17;;
29908;SDS011;36247;51.952;6.146;2023-03-31T12:23:39;11.82;;;3.30;;
29908;SDS011;36247;51.952;6.146;2023-03-31T12:32:01;8.77;;;3.53;;
29908;SDS011;36247;51.952;6.146;2023-03-31T12:34:36;11.93;;;4.18;;
29908;SDS011;36247;51.952;6.146;2023-03-31T12:37:35;15.03;;;3.60;;
29908;SDS011;36247;51.952;6.146;2023-03-31T13:03:46;10.68;;;4.13;;
29908;SDS011;36247;51.952;6.146;2023-03-31T13:06:44;15.45;;;4.03;;
29908;SDS011;36247;51.952;6.146;2023-03-31T13:12:05;11.63;;;3.05;;
29908;SDS011;36247;51.952;6.146;2023-03-31T13:15:03;15.23;;;3.72;;
29908;SDS011;36247;51.952;6.146;2023-03-31T13:17:39;11.25;;;2.95;;
29908;SDS011;36247;51.952;6.146;2023-03-31T13:20:30;11.93;;;3.33;;
29908;SDS011;36247;51.952;6.146;2023-03-31T13:23:29;11.90;;;3.00;;
29908;SDS011;36247;51.952;6.146;2023-03-31T13:26:04;10.57;;;2.72;;
29908;SDS011;36247;51.952;6.146;2023-03-31T13:31:06;13.02;;;2.88;;
29908;SDS011;36247;51.952;6.146;2023-03-31T13:33:56;11.95;;;3.33;;
29908;SDS011;36247;51.952;6.146;2023-03-31T13:47:27;10.95;;;2.67;;
29908;SDS011;36247;51.952;6.146;2023-03-31T13:53:13;6.63;;;1.95;;
29908;SDS011;36247;51.952;6.146;2023-03-31T14:04:46;9.98;;;3.03;;
29908;SDS011;36247;51.952;6.146;2023-03-31T14:10:35;12.82;;;2.97;;
29908;SDS011;36247;51.952;6.146;2023-03-31T14:13:23;13.40;;;3.15;;
29908;SDS011;36247;51.952;6.146;2023-03-31T14:16:09;14.65;;;3.58;;
29908;SDS011;36247;51.952;6.146;2023-03-31T14:22:30;19.98;;;3.67;;
29908;SDS011;36247;51.952;6.146;2023-03-31T14:25:11;14.18;;;3.42;;
29908;SDS011;36247;51.952;6.146;2023-03-31T14:41:24;10.27;;;3.15;;
29908;SDS011;36247;51.952;6.146;2023-03-31T14:46:43;8.20;;;2.60;;
29908;SDS011;36247;51.952;6.146;2023-03-31T14:49:21;9.23;;;2.60;;
29908;SDS011;36247;51.952;6.146;2023-03-31T14:52:16;7.80;;;2.80;;
29908;SDS011;36247;51.952;6.146;2023-03-31T14:54:57;5.60;;;1.98;;
29908;SDS011;36247;51.952;6.146;2023-03-31T14:57:42;7.07;;;2.33;;
29908;SDS011;36247;51.952;6.146;2023-03-31T15:00:15;9.45;;;3.13;;
29908;SDS011;36247;51.952;6.146;2023-03-31T15:02:59;6.38;;;2.40;;
29908;SDS011;36247;51.952;6.146;2023-03-31T15:06:20;11.80;;;2.92;;
29908;SDS011;36247;51.952;6.146;2023-03-31T15:08:43;8.43;;;2.92;;
29908;SDS011;36247;51.952;6.146;2023-03-31T15:11:16;6.15;;;2.17;;
29908;SDS011;36247;51.952;6.146;2023-03-31T15:14:00;9.82;;;2.58;;
29908;SDS011;36247;51.952;6.146;2023-03-31T15:18:58;11.45;;;2.10;;
29908;SDS011;36247;51.952;6.146;2023-03-31T15:21:35;5.45;;;2.30;;
29908;SDS011;36247;51.952;6.146;2023-03-31T15:24:31;5.97;;;1.98;;
29908;SDS011;36247;51.952;6.146;2023-03-31T15:27:00;5.85;;;2.10;;
29908;SDS011;36247;51.952;6.146;2023-03-31T15:29:45;8.80;;;2.38;;
29908;SDS011;36247;51.952;6.146;2023-03-31T15:39:33;7.97;;;2.50;;
29908;SDS011;36247;51.952;6.146;2023-03-31T15:51:41;5.95;;;1.95;;
29908;SDS011;36247;51.952;6.146;2023-03-31T15:55:44;3.55;;;1.95;;
29908;SDS011;36247;51.952;6.146;2023-03-31T15:58:20;5.10;;;2.15;;
29908;SDS011;36247;51.952;6.146;2023-03-31T16:20:04;3.25;;;1.63;;
29908;SDS011;36247;51.952;6.146;2023-03-31T16:27:24;2.78;;;1.83;;
29908;SDS011;36247;51.952;6.146;2023-03-31T16:33:25;2.10;;;1.58;;
29908;SDS011;36247;51.952;6.146;2023-03-31T16:39:34;6.80;;;3.30;;
29908;SDS011;36247;51.952;6.146;2023-03-31T19:09:26;6.28;;;2.75;;
29908;SDS011;36247;51.952;6.146;2023-03-31T20:02:22;8.10;;;3.47;;
